This is the latest recevied weather packets stored in our database for station/object JQ1YUX-13. If no packets are shown the sender has not sent any weather packets the latest 10 day(s).
| Time | Temp. | Humidity | Pressure | Rain* | Wind** | Luminosity | Snow |
|---|---|---|---|---|---|---|---|
| 1778143204 | 23.33° C | 85% | 1008.1 hPa | 0 mm | - | - | - |
| 1778142302 | 23.89° C | 84% | 1007.8 hPa | 0 mm | - | - | - |
| 1778141404 | 23.89° C | 82% | 1008.1 hPa | 0 mm | - | - | - |
| 1778140503 | 24.44° C | 83% | 1008.2 hPa | 0 mm | - | - | - |
| 1778138702 | 24.44° C | 83% | 1008.4 hPa | 0 mm | - | - | - |
| 1778137803 | 23.89° C | 84% | 1008.6 hPa | 0 mm | - | - | - |
| 1778136903 | 23.89° C | 83% | 1008.6 hPa | 0 mm | - | - | - |
| 1778136002 | 23.89° C | 84% | 1008.5 hPa | 0 mm | - | - | - |
| 1778135103 | 23.33° C | 85% | 1008.8 hPa | 0 mm | - | - | - |
| 1778131852 | 24.44° C | 82% | 1009.8 hPa | 0 mm | - | - | - |
| 1778130752 | 24.44° C | 82% | 1010 hPa | 0 mm | - | - | - |
| 1778129852 | 24.44° C | 81% | 1010.3 hPa | 0 mm | - | - | - |
| 1778128952 | 24.44° C | 81% | 1010.2 hPa | 0 mm | - | - | - |
| 1778128052 | 25° C | 80% | 1010.6 hPa | 0 mm | - | - | - |
| 1778127151 | 24.44° C | 82% | 1010.7 hPa | 0 mm | - | - | - |
| 1778126252 | 23.89° C | 82% | 1011.1 hPa | 0 mm | - | - | - |
| 1778125357 | 23.89° C | 81% | 1011.2 hPa | 0 mm | - | - | - |
| 1778124451 | 23.89° C | 81% | 1011.4 hPa | 0 mm | - | - | - |
| 1778123552 | 23.89° C | 81% | 1011.5 hPa | 0 mm | - | - | - |
| 1778122653 | 23.89° C | 80% | 1011.7 hPa | 0 mm | - | - | - |
| 1778121751 | 23.89° C | 79% | 1012 hPa | 0 mm | - | - | - |
| 1778120852 | 24.44° C | 77% | 1012.1 hPa | 0 mm | - | - | - |
| 1778119951 | 23.89° C | 76% | 1012.3 hPa | 0 mm | - | - | - |
| 1778119052 | 23.89° C | 77% | 1012.3 hPa | 0 mm | - | - | - |
| 1778118153 | 25° C | 74% | 1012.5 hPa | 0 mm | - | - | - |
* Rain latest hour (hover to see other rain measurements)
** Current wind speed in m/s (hover to see current wind gust speed)